createdAt,value
2022-08-05T00:00:18.578Z,3.53
2022-08-05T00:02:51.358Z,3.40
2022-08-05T00:06:01.821Z,3.50
2022-08-05T00:08:32.901Z,3.50
2022-08-05T00:11:01.348Z,3.80
2022-08-05T00:13:39.478Z,3.70
2022-08-05T00:16:10.954Z,3.40
2022-08-05T00:18:42.204Z,4.00
2022-08-05T00:21:09.313Z,3.70
2022-08-05T00:23:45.700Z,3.55
2022-08-05T00:26:15.115Z,3.67
2022-08-05T00:28:43.756Z,3.33
2022-08-05T00:31:13.020Z,3.50
2022-08-05T00:34:55.795Z,3.67
2022-08-05T00:37:10.377Z,3.50
2022-08-05T00:39:14.514Z,4.00
2022-08-05T00:41:46.848Z,3.58
2022-08-05T00:44:18.999Z,3.60
2022-08-05T00:46:47.642Z,3.92
2022-08-05T00:49:21.086Z,3.63
2022-08-05T00:51:51.570Z,3.65
2022-08-05T00:54:19.422Z,3.58
2022-08-05T00:56:51.776Z,3.75
2022-08-05T00:59:18.746Z,3.65
2022-08-05T01:01:48.411Z,3.65
2022-08-05T01:04:15.986Z,3.70
2022-08-05T01:06:51.715Z,3.42
2022-08-05T01:09:19.944Z,3.65
2022-08-05T01:11:51.745Z,3.40
2022-08-05T01:14:27.721Z,3.55
2022-08-05T01:16:55.248Z,3.70
2022-08-05T01:19:30.192Z,3.47
2022-08-05T01:22:34.857Z,3.85
2022-08-05T01:25:39.603Z,3.42
2022-08-05T01:28:13.913Z,3.65
2022-08-05T01:30:55.102Z,3.80
2022-08-05T01:33:26.365Z,3.67
2022-08-05T01:35:57.427Z,3.58
2022-08-05T01:38:29.097Z,3.80
2022-08-05T01:41:01.392Z,3.65
2022-08-05T01:43:29.836Z,3.58
2022-08-05T01:45:57.930Z,3.70
2022-08-05T01:48:27.538Z,3.80
2022-08-05T01:50:56.912Z,3.65
2022-08-05T01:53:54.951Z,3.65
2022-08-05T01:58:11.648Z,3.90
2022-08-05T01:59:09.900Z,3.78
2022-08-05T02:01:40.361Z,3.95
2022-08-05T02:04:10.219Z,3.90
2022-08-05T02:06:39.004Z,3.65
2022-08-05T02:09:07.016Z,4.00
2022-08-05T02:11:48.120Z,3.75
2022-08-05T02:14:44.555Z,4.10
2022-08-05T02:18:32.173Z,4.13
2022-08-05T02:20:33.836Z,4.32
2022-08-05T02:23:10.856Z,4.95
2022-08-05T02:25:49.345Z,4.07
2022-08-05T02:28:28.889Z,4.00
2022-08-05T02:31:02.408Z,4.00
2022-08-05T02:33:38.758Z,4.03
2022-08-05T02:36:15.662Z,3.85
2022-08-05T02:38:53.492Z,4.20
2022-08-05T02:41:22.796Z,4.40
2022-08-05T02:44:02.626Z,4.13
2022-08-05T02:46:35.240Z,3.97
2022-08-05T02:49:02.722Z,3.80
2022-08-05T02:52:02.985Z,4.32
2022-08-05T02:54:35.794Z,3.55
2022-08-05T02:57:10.286Z,3.78
2022-08-05T02:59:54.356Z,4.00
2022-08-05T03:02:27.480Z,3.90
2022-08-05T03:04:57.527Z,4.20
2022-08-05T03:08:00.559Z,3.95
2022-08-05T03:10:15.684Z,3.90
2022-08-05T03:12:51.746Z,3.80
2022-08-05T03:15:20.203Z,4.07
2022-08-05T03:17:46.930Z,4.32
2022-08-05T03:20:13.972Z,4.32
2022-08-05T03:22:44.226Z,4.28
2022-08-05T03:25:32.741Z,3.90
2022-08-05T03:28:08.615Z,3.95
2022-08-05T03:30:36.824Z,4.38
2022-08-05T03:33:07.391Z,4.25
2022-08-05T03:35:41.130Z,3.95
2022-08-05T03:38:11.068Z,4.00
2022-08-05T03:40:45.114Z,4.20
2022-08-05T03:43:58.603Z,4.47
2022-08-05T03:46:01.860Z,4.43
2022-08-05T03:48:29.952Z,4.00
2022-08-05T03:52:37.709Z,4.10
2022-08-05T03:56:04.278Z,4.25
2022-08-05T03:56:47.332Z,4.20
2022-08-05T03:59:54.765Z,4.32
2022-08-05T04:02:38.271Z,4.07
2022-08-05T04:05:09.681Z,4.55
2022-08-05T04:07:53.081Z,4.05
2022-08-05T04:10:27.893Z,4.32
2022-08-05T04:12:55.533Z,4.53
2022-08-05T04:15:25.697Z,4.43
2022-08-05T04:17:59.882Z,4.22
2022-08-05T04:20:26.858Z,4.57
2022-08-05T04:22:53.506Z,4.45
2022-08-05T04:25:24.166Z,4.45
2022-08-05T04:28:11.450Z,4.60
2022-08-05T04:30:39.759Z,4.78
2022-08-05T04:33:06.515Z,4.57
2022-08-05T04:36:11.290Z,4.53
2022-08-05T04:38:21.152Z,4.50
2022-08-05T04:40:50.735Z,4.70
2022-08-05T04:43:18.256Z,4.40
2022-08-05T04:45:55.638Z,4.38
2022-08-05T04:48:28.145Z,4.18
2022-08-05T04:51:01.751Z,4.35
2022-08-05T04:53:36.701Z,4.15
2022-08-05T04:56:32.356Z,4.32
2022-08-05T04:58:54.706Z,4.00
2022-08-05T05:02:06.279Z,4.22
2022-08-05T05:04:08.421Z,4.60
2022-08-05T05:06:43.987Z,4.60
2022-08-05T05:09:17.627Z,5.10
2022-08-05T05:11:54.138Z,4.50
2022-08-05T05:14:27.895Z,4.40
2022-08-05T05:16:59.926Z,3.92
2022-08-05T05:19:36.433Z,4.18
2022-08-05T05:22:23.636Z,4.47
2022-08-05T05:24:50.863Z,4.50
2022-08-05T05:27:45.867Z,4.15
2022-08-05T05:30:31.482Z,4.18
2022-08-05T05:33:14.189Z,4.30
2022-08-05T05:35:47.435Z,4.35
2022-08-05T05:38:22.716Z,3.45
2022-08-05T05:40:54.424Z,4.22
2022-08-05T05:43:57.548Z,3.95
2022-08-05T05:46:15.875Z,4.13
2022-08-05T05:48:47.716Z,4.10
2022-08-05T05:51:27.910Z,3.95
2022-08-05T05:53:58.785Z,4.18
2022-08-05T05:56:34.803Z,3.60
2022-08-05T05:59:07.371Z,3.70
2022-08-05T06:01:37.772Z,3.80
2022-08-05T06:04:12.770Z,3.65
2022-08-05T06:06:41.569Z,3.55
2022-08-05T06:09:08.911Z,3.60
2022-08-05T06:11:43.597Z,3.42
2022-08-05T06:14:28.864Z,3.83
2022-08-05T06:16:56.979Z,4.03
2022-08-05T06:19:34.120Z,3.50
2022-08-05T06:22:07.691Z,3.50
2022-08-05T06:24:41.337Z,3.65
2022-08-05T06:27:17.172Z,3.83
2022-08-05T06:30:04.602Z,3.45
2022-08-05T06:32:43.824Z,3.40
2022-08-05T06:35:21.698Z,3.53
2022-08-05T06:38:04.261Z,3.42
2022-08-05T06:40:36.902Z,3.83
2022-08-05T06:43:57.506Z,3.70
2022-08-05T06:46:04.007Z,4.00
2022-08-05T06:48:53.526Z,3.85
2022-08-05T06:51:29.559Z,3.40
2022-08-05T06:54:01.717Z,3.75
2022-08-05T06:56:29.111Z,3.67
2022-08-05T06:58:55.906Z,3.78
2022-08-05T07:01:22.868Z,4.18
2022-08-05T07:03:49.764Z,4.00
2022-08-05T07:06:17.504Z,4.30
2022-08-05T07:08:54.507Z,4.18
2022-08-05T07:11:25.631Z,4.63
2022-08-05T07:14:20.706Z,5.13
2022-08-05T07:17:58.837Z,5.43
2022-08-05T07:20:31.655Z,5.50
2022-08-05T07:22:34.587Z,5.90
2022-08-05T07:25:22.717Z,6.82
2022-08-05T07:27:58.180Z,6.97
2022-08-05T07:30:33.332Z,7.00
2022-08-05T07:33:09.286Z,6.43
2022-08-05T07:36:03.999Z,6.85
2022-08-05T07:38:33.677Z,6.93
2022-08-05T07:42:06.830Z,6.28
2022-08-05T07:43:56.698Z,6.57
2022-08-05T07:46:28.910Z,6.85
2022-08-05T07:49:02.504Z,7.18
2022-08-05T07:51:36.930Z,7.13
2022-08-05T07:54:05.216Z,6.63
2022-08-05T07:57:02.875Z,7.22
2022-08-05T07:59:23.299Z,7.15
2022-08-05T08:02:07.337Z,6.15
2022-08-05T08:04:43.010Z,6.93
2022-08-05T08:07:12.306Z,7.13
2022-08-05T08:09:38.992Z,6.57
2022-08-05T08:12:16.943Z,5.50
2022-08-05T08:14:52.817Z,4.70
2022-08-05T08:17:21.481Z,4.57
2022-08-05T08:20:22.275Z,5.35
2022-08-05T08:22:35.842Z,4.63
2022-08-05T08:25:03.914Z,4.70
2022-08-05T08:27:47.588Z,5.00
2022-08-05T08:30:30.028Z,5.63
2022-08-05T08:33:04.375Z,5.38
2022-08-05T08:35:41.472Z,4.75
2022-08-05T08:38:18.920Z,4.70
2022-08-05T08:41:06.478Z,4.70
2022-08-05T08:45:23.609Z,4.43
2022-08-05T08:46:24.092Z,4.00
2022-08-05T08:49:08.100Z,4.15
2022-08-05T08:52:03.454Z,4.20
2022-08-05T08:54:29.289Z,4.22
2022-08-05T08:56:56.731Z,3.97
2022-08-05T08:59:27.650Z,4.15
2022-08-05T09:02:04.502Z,4.07
2022-08-05T09:04:58.467Z,4.40
2022-08-05T09:07:28.441Z,4.15
2022-08-05T09:09:56.061Z,4.55
2022-08-05T09:12:27.270Z,4.57
2022-08-05T09:15:04.862Z,4.20
2022-08-05T09:17:40.648Z,4.32
2022-08-05T09:20:11.515Z,4.40
2022-08-05T09:23:07.770Z,4.68
2022-08-05T09:26:02.418Z,4.35
2022-08-05T09:28:31.592Z,4.40
2022-08-05T09:31:22.199Z,3.80
2022-08-05T09:33:56.123Z,3.90
2022-08-05T09:36:27.416Z,3.95
2022-08-05T09:39:16.551Z,3.88
2022-08-05T09:41:58.698Z,3.90
2022-08-05T09:44:46.114Z,3.95
2022-08-05T09:47:36.432Z,3.50
2022-08-05T09:50:18.037Z,4.47
2022-08-05T09:53:01.033Z,4.13
2022-08-05T09:55:57.129Z,4.25
2022-08-05T09:58:15.739Z,4.03
2022-08-05T10:01:14.811Z,4.13
2022-08-05T10:04:00.424Z,3.90
2022-08-05T10:06:28.181Z,4.20
2022-08-05T10:08:55.778Z,4.50
2022-08-05T10:11:22.980Z,4.15
2022-08-05T10:13:54.626Z,4.28
2022-08-05T10:16:37.921Z,4.30
2022-08-05T10:19:10.129Z,3.90
2022-08-05T10:21:40.118Z,4.20
2022-08-05T10:24:10.910Z,3.80
2022-08-05T10:26:51.823Z,4.10
2022-08-05T10:29:23.982Z,4.07
2022-08-05T10:32:54.910Z,4.18
2022-08-05T10:35:01.049Z,4.60
2022-08-05T10:37:37.477Z,3.92
2022-08-05T10:40:35.728Z,4.15
2022-08-05T10:43:36.452Z,4.90
2022-08-05T10:46:08.749Z,4.63
2022-08-05T10:48:57.990Z,4.53
2022-08-05T10:51:57.699Z,4.97
2022-08-05T10:55:06.326Z,3.88
2022-08-05T10:57:34.237Z,4.57
2022-08-05T11:00:24.495Z,4.50
2022-08-05T11:03:23.448Z,4.57
2022-08-05T11:06:14.579Z,4.50
2022-08-05T11:09:18.609Z,4.90
2022-08-05T11:11:53.977Z,5.30
2022-08-05T11:15:01.397Z,4.90
2022-08-05T11:18:00.279Z,5.05
2022-08-05T11:20:37.403Z,4.80
2022-08-05T11:24:05.259Z,5.43
2022-08-05T11:26:38.123Z,5.47
2022-08-05T11:29:13.345Z,5.20
2022-08-05T11:31:58.204Z,5.07
2022-08-05T11:34:38.857Z,4.78
2022-08-05T11:38:26.423Z,4.90
2022-08-05T11:40:00.550Z,5.00
2022-08-05T11:42:37.898Z,4.88
2022-08-05T11:45:14.323Z,4.85
2022-08-05T11:47:55.143Z,4.50
2022-08-05T11:50:22.710Z,4.38
2022-08-05T11:52:53.184Z,4.72
2022-08-05T11:55:24.173Z,5.03
2022-08-05T11:58:10.146Z,5.28
2022-08-05T12:00:39.006Z,5.25
2022-08-05T12:03:31.374Z,4.68
2022-08-05T12:06:06.125Z,4.68
2022-08-05T12:08:52.491Z,4.88
2022-08-05T12:11:23.866Z,4.47
2022-08-05T12:13:58.691Z,4.53
2022-08-05T12:16:29.345Z,4.68
2022-08-05T12:18:56.146Z,4.30
2022-08-05T12:21:29.962Z,4.35
2022-08-05T12:24:11.963Z,4.65
2022-08-05T12:26:43.867Z,4.03
2022-08-05T12:29:16.230Z,4.20
2022-08-05T12:31:53.845Z,4.40
2022-08-05T12:34:30.127Z,4.50
2022-08-05T12:37:10.885Z,4.40
2022-08-05T12:39:48.496Z,4.70
2022-08-05T12:42:19.795Z,4.10
2022-08-05T12:44:47.631Z,4.55
2022-08-05T12:47:26.911Z,4.97
2022-08-05T12:50:03.016Z,4.43
2022-08-05T12:52:41.820Z,4.30
2022-08-05T12:55:25.680Z,4.50
2022-08-05T12:58:49.716Z,4.53
2022-08-05T13:02:00.355Z,4.70
2022-08-05T13:03:32.386Z,4.65
2022-08-05T13:06:00.863Z,4.78
2022-08-05T13:08:32.295Z,4.43
2022-08-05T13:11:02.421Z,4.45
2022-08-05T13:14:05.324Z,4.70
2022-08-05T13:16:20.355Z,4.13
2022-08-05T13:18:57.901Z,4.22
2022-08-05T13:21:28.160Z,4.05
2022-08-05T13:24:05.789Z,4.47
2022-08-05T13:26:35.433Z,4.22
2022-08-05T13:29:02.171Z,4.18
2022-08-05T13:32:02.827Z,4.10
2022-08-05T13:34:21.666Z,4.35
2022-08-05T13:36:53.948Z,4.45
2022-08-05T13:39:24.800Z,4.20
2022-08-05T13:42:14.434Z,3.92
2022-08-05T13:47:36.168Z,4.43
2022-08-05T13:50:04.519Z,4.28
2022-08-05T13:52:35.473Z,4.57
2022-08-05T13:55:07.799Z,4.70
2022-08-05T13:57:48.742Z,4.55
2022-08-05T14:00:27.343Z,3.90
2022-08-05T14:02:57.544Z,4.18
2022-08-05T14:05:47.929Z,4.70
2022-08-05T14:08:20.809Z,4.28
2022-08-05T14:10:48.782Z,4.38
2022-08-05T14:13:15.779Z,4.45
2022-08-05T14:16:05.017Z,4.57
2022-08-05T14:18:29.623Z,4.53
2022-08-05T14:20:56.306Z,4.78
2022-08-05T14:23:26.016Z,4.30
2022-08-05T14:25:58.677Z,4.60
2022-08-05T14:28:28.146Z,3.90
2022-08-05T14:30:55.899Z,4.82
2022-08-05T14:33:23.917Z,5.10
2022-08-05T14:35:54.323Z,4.40
2022-08-05T14:38:32.216Z,4.53
2022-08-05T14:41:06.898Z,4.68
2022-08-05T14:43:57.704Z,4.55
2022-08-05T14:46:28.562Z,5.05
2022-08-05T14:49:06.906Z,4.30
2022-08-05T14:51:37.967Z,4.68
2022-08-05T14:54:26.062Z,4.60
2022-08-05T14:56:54.779Z,4.65
2022-08-05T14:59:21.874Z,4.97
2022-08-05T15:01:49.968Z,4.60
2022-08-05T15:04:20.551Z,4.45
2022-08-05T15:06:49.115Z,4.53
2022-08-05T15:09:16.243Z,5.20
2022-08-05T15:12:03.906Z,4.40
2022-08-05T15:14:35.097Z,3.72
2022-08-05T15:17:44.690Z,4.00
2022-08-05T15:19:56.987Z,3.55
2022-08-05T15:22:27.010Z,4.50
2022-08-05T15:24:56.224Z,3.88
2022-08-05T15:27:25.425Z,3.92
2022-08-05T15:29:54.224Z,3.95
2022-08-05T15:32:27.275Z,4.60
2022-08-05T15:34:56.208Z,4.05
2022-08-05T15:38:33.253Z,4.03
2022-08-05T15:40:59.540Z,4.13
2022-08-05T15:43:09.192Z,3.72
2022-08-05T15:45:45.687Z,4.07
2022-08-05T15:48:14.120Z,3.72
2022-08-05T15:50:43.748Z,4.25
2022-08-05T15:53:12.761Z,4.57
2022-08-05T15:56:04.172Z,3.90
2022-08-05T15:58:28.586Z,4.15
2022-08-05T16:01:11.643Z,4.20
2022-08-05T16:03:43.105Z,4.18
2022-08-05T16:06:11.530Z,4.40
2022-08-05T16:08:38.593Z,4.05
2022-08-05T16:11:05.407Z,3.80
2022-08-05T16:13:34.915Z,4.15
2022-08-05T16:16:03.521Z,4.30
2022-08-05T16:18:33.069Z,4.75
2022-08-05T16:21:04.173Z,4.30
2022-08-05T16:23:32.852Z,4.45
2022-08-05T16:26:18.954Z,4.50
2022-08-05T16:28:53.176Z,4.57
2022-08-05T16:31:21.528Z,4.45
2022-08-05T16:33:48.751Z,4.22
2022-08-05T16:36:20.496Z,4.40
2022-08-05T16:38:54.503Z,4.50
2022-08-05T16:42:15.105Z,4.65
2022-08-05T16:44:14.140Z,4.70
2022-08-05T16:46:55.899Z,4.47
2022-08-05T16:49:23.125Z,4.72
2022-08-05T16:51:51.396Z,4.28
2022-08-05T16:54:27.511Z,4.60
2022-08-05T16:56:58.737Z,5.05
2022-08-05T16:59:27.805Z,5.07
2022-08-05T17:01:57.531Z,4.22
2022-08-05T17:04:28.230Z,4.93
2022-08-05T17:07:00.217Z,4.50
2022-08-05T17:09:38.907Z,4.30
2022-08-05T17:12:17.605Z,4.57
2022-08-05T17:14:49.612Z,4.28
2022-08-05T17:17:16.519Z,4.07
2022-08-05T17:19:46.606Z,5.32
2022-08-05T17:22:25.459Z,4.30
2022-08-05T17:24:56.835Z,4.93
2022-08-05T17:27:26.088Z,4.80
2022-08-05T17:30:00.630Z,4.53
2022-08-05T17:32:29.527Z,4.30
2022-08-05T17:34:58.233Z,4.22
2022-08-05T17:37:39.539Z,4.68
2022-08-05T17:40:14.543Z,4.32
2022-08-05T17:42:49.670Z,4.80
2022-08-05T17:45:21.177Z,4.15
2022-08-05T17:47:54.490Z,4.50
2022-08-05T17:50:28.375Z,4.23
2022-08-05T17:52:59.211Z,4.85
2022-08-05T17:55:34.137Z,4.43
2022-08-05T17:58:06.975Z,4.45
2022-08-05T18:00:36.309Z,4.30
2022-08-05T18:03:08.018Z,4.75
2022-08-05T18:05:36.088Z,4.65
2022-08-05T18:08:03.495Z,5.10
2022-08-05T18:10:32.260Z,4.70
2022-08-05T18:13:00.357Z,4.53
2022-08-05T18:15:31.231Z,4.68
2022-08-05T18:18:05.770Z,4.40
2022-08-05T18:20:38.005Z,4.43
2022-08-05T18:23:08.966Z,4.32
2022-08-05T18:25:39.050Z,4.72
2022-08-05T18:28:06.879Z,4.53
2022-08-05T18:30:34.652Z,4.70
2022-08-05T18:33:01.886Z,4.97
2022-08-05T18:35:59.952Z,4.70
2022-08-05T18:38:19.058Z,4.13
2022-08-05T18:41:57.397Z,4.43
2022-08-05T18:43:42.776Z,4.80
2022-08-05T18:46:15.357Z,4.72
2022-08-05T18:48:42.184Z,4.22
2022-08-05T18:52:03.889Z,4.90
2022-08-05T18:54:15.130Z,4.78
2022-08-05T18:56:51.042Z,4.57
2022-08-05T18:59:44.082Z,4.93
2022-08-05T19:02:11.211Z,4.60
2022-08-05T19:05:01.335Z,4.43
2022-08-05T19:07:45.613Z,5.47
2022-08-05T19:10:14.797Z,4.43
2022-08-05T19:12:41.712Z,4.97
2022-08-05T19:15:25.142Z,4.93
2022-08-05T19:18:08.298Z,4.50
2022-08-05T19:20:36.818Z,4.80
2022-08-05T19:23:07.903Z,4.78
2022-08-05T19:25:38.167Z,4.82
2022-08-05T19:28:06.030Z,4.90
2022-08-05T19:30:32.721Z,4.57
2022-08-05T19:32:59.428Z,4.93
2022-08-05T19:35:26.104Z,5.00
2022-08-05T19:38:12.788Z,4.60
2022-08-05T19:40:43.831Z,5.03
2022-08-05T19:43:10.661Z,4.80
2022-08-05T19:45:57.373Z,4.80
2022-08-05T19:48:24.058Z,4.63
2022-08-05T19:50:52.417Z,4.80
2022-08-05T19:54:04.261Z,5.20
2022-08-05T19:56:14.452Z,4.88
2022-08-05T19:58:53.750Z,4.50
2022-08-05T20:01:28.194Z,4.60
2022-08-05T20:03:55.501Z,4.85
2022-08-05T20:06:23.386Z,4.78
2022-08-05T20:08:56.211Z,5.22
2022-08-05T20:11:24.303Z,4.57
2022-08-05T20:13:58.070Z,4.90
2022-08-05T20:18:55.574Z,4.93
2022-08-05T20:21:22.989Z,4.65
2022-08-05T20:23:53.263Z,4.88
2022-08-05T20:26:26.897Z,5.15
2022-08-05T20:28:56.925Z,5.07
2022-08-05T20:31:28.584Z,5.40
2022-08-05T20:34:10.239Z,5.72
2022-08-05T20:36:37.016Z,4.93
2022-08-05T20:39:13.027Z,5.20
2022-08-05T20:41:43.124Z,4.90
2022-08-05T20:44:19.257Z,5.47
2022-08-05T20:46:57.341Z,5.43
2022-08-05T20:49:25.807Z,5.40
2022-08-05T20:51:54.211Z,5.35
2022-08-05T20:54:22.164Z,4.90
2022-08-05T20:56:49.177Z,5.00
2022-08-05T20:59:26.729Z,5.10
2022-08-05T21:01:57.187Z,5.10
2022-08-05T21:04:27.002Z,4.85
2022-08-05T21:06:54.523Z,4.93
2022-08-05T21:09:22.883Z,4.72
2022-08-05T21:12:07.479Z,5.22
2022-08-05T21:14:37.789Z,4.63
2022-08-05T21:17:05.403Z,4.80
2022-08-05T21:19:47.629Z,4.63
2022-08-05T21:22:21.730Z,4.50
2022-08-05T21:24:51.605Z,5.00
2022-08-05T21:27:25.232Z,4.80
2022-08-05T21:29:56.156Z,5.30
2022-08-05T21:32:27.587Z,4.85
2022-08-05T21:35:16.865Z,4.95
2022-08-05T21:37:47.150Z,5.25
2022-08-05T21:40:20.615Z,4.30
2022-08-05T21:42:47.614Z,4.90
2022-08-05T21:45:24.831Z,4.93
2022-08-05T21:48:06.571Z,5.10
2022-08-05T21:50:37.289Z,4.68
2022-08-05T21:53:17.730Z,4.75
2022-08-05T21:56:04.608Z,4.50
2022-08-05T21:58:32.477Z,4.40
2022-08-05T22:00:59.730Z,4.80
2022-08-05T22:03:52.580Z,4.75
2022-08-05T22:06:14.432Z,4.32
2022-08-05T22:08:42.831Z,4.38
2022-08-05T22:11:12.752Z,4.60
2022-08-05T22:14:32.329Z,4.50
2022-08-05T22:16:41.706Z,4.60
2022-08-05T22:20:00.389Z,5.00
2022-08-05T22:22:03.143Z,4.50
2022-08-05T22:24:52.054Z,4.47
2022-08-05T22:28:09.825Z,4.38
2022-08-05T22:30:24.957Z,4.45
2022-08-05T22:32:59.444Z,4.30
2022-08-05T22:35:26.415Z,4.22
2022-08-05T22:37:59.669Z,4.78
2022-08-05T22:40:27.171Z,4.45
2022-08-05T22:42:58.245Z,4.70
2022-08-05T22:45:26.474Z,4.35
2022-08-05T22:47:55.323Z,4.28
2022-08-05T22:50:26.543Z,4.53
2022-08-05T22:52:54.015Z,4.20
2022-08-05T22:55:22.691Z,4.40
2022-08-05T22:57:51.486Z,5.10
2022-08-05T23:00:21.113Z,4.93
2022-08-05T23:02:49.195Z,4.75
2022-08-05T23:05:16.779Z,5.07
2022-08-05T23:07:45.301Z,5.13
2022-08-05T23:10:20.137Z,5.43
2022-08-05T23:12:51.519Z,5.20
2022-08-05T23:15:22.336Z,5.68
2022-08-05T23:18:00.510Z,4.90
2022-08-05T23:20:37.316Z,4.72
2022-08-05T23:23:08.019Z,4.78
2022-08-05T23:25:51.257Z,5.43
2022-08-05T23:30:53.174Z,5.53
2022-08-05T23:33:22.491Z,5.07
2022-08-05T23:36:10.150Z,4.82
2022-08-05T23:38:37.278Z,5.25
2022-08-05T23:41:04.038Z,4.93
2022-08-05T23:44:04.319Z,4.85
2022-08-05T23:46:19.590Z,4.72
2022-08-05T23:49:00.658Z,5.32
2022-08-05T23:51:53.647Z,5.63
2022-08-05T23:54:36.530Z,5.15
2022-08-05T23:57:06.724Z,4.97
